Time;durP1;ratioP1;P1;durP2;ratioP2;P2;SDS_P1;SDS_P2;PMS_P1;PMS_P2;Temp;Humidity;BMP_temperature;BMP_pressure;BME280_temperature;BME280_humidity;BME280_pressure;Samples;Min_cycle;Max_cycle;Signal;HPM_P1;HPM_P2
2022/09/15 00:01:25;;;;;;;3.45;3.15;;;17.70;70.40;;;;;;5095894;28;20355;-76
2022/09/15 00:03:51;;;;;;;3.38;2.75;;;17.70;70.40;;;;;;5077372;28;20027;-77
2022/09/15 00:06:18;;;;;;;3.17;2.80;;;17.70;70.50;;;;;;5095932;28;20024;-75
2022/09/15 00:08:44;;;;;;;2.88;2.60;;;17.70;70.50;;;;;;5094850;28;20032;-73
2022/09/15 00:11:16;;;;;;;2.85;2.65;;;17.70;70.50;;;;;;5095591;28;20039;-76
2022/09/15 00:13:42;;;;;;;2.97;2.67;;;17.70;70.50;;;;;;5095789;28;20016;-75
2022/09/15 00:16:09;;;;;;;3.15;2.85;;;17.70;70.60;;;;;;5095744;28;20028;-76
2022/09/15 00:18:36;;;;;;;3.20;2.90;;;17.60;70.50;;;;;;5076964;28;20047;-76
2022/09/15 00:21:07;;;;;;;3.42;3.10;;;17.60;70.60;;;;;;5095338;28;20070;-75
2022/09/15 00:23:33;;;;;;;3.75;2.80;;;17.60;70.60;;;;;;5095755;28;20504;-75
2022/09/15 00:25:59;;;;;;;3.70;3.10;;;17.60;70.60;;;;;;5095376;28;20032;-76
2022/09/15 00:28:25;;;;;;;3.03;2.72;;;17.60;70.60;;;;;;5095361;28;20054;-76
2022/09/15 00:30:52;;;;;;;4.10;3.33;;;17.60;70.70;;;;;;5095097;28;20521;-76
2022/09/15 00:33:19;;;;;;;3.25;2.95;;;17.60;70.70;;;;;;5095093;28;20066;-75
2022/09/15 00:35:47;;;;;;;3.50;3.00;;;17.60;70.70;;;;;;5077045;28;20031;-76
2022/09/15 00:38:14;;;;;;;2.97;2.70;;;17.60;70.70;;;;;;5076912;28;20038;-76
2022/09/15 00:40:52;;;;;;;3.80;3.10;;;17.60;70.80;;;;;;5076807;28;20092;-76
2022/09/15 00:43:21;;;;;;;3.22;2.92;;;17.60;70.80;;;;;;5094994;28;20114;-77
2022/09/15 00:45:47;;;;;;;3.42;3.00;;;17.60;70.80;;;;;;5095046;28;20024;-74
2022/09/15 00:48:19;;;;;;;3.65;3.28;;;17.60;70.80;;;;;;5095244;28;20024;-76
2022/09/15 00:50:50;;;;;;;3.92;3.05;;;17.60;70.80;;;;;;5094014;28;20066;-76
2022/09/15 00:53:19;;;;;;;4.22;3.13;;;17.60;70.80;;;;;;5075986;28;20027;-77
2022/09/15 00:55:47;;;;;;;4.68;2.90;;;17.60;70.80;;;;;;5094913;28;20028;-76
2022/09/15 00:58:23;;;;;;;3.60;2.95;;;17.50;70.80;;;;;;5094852;28;20060;-76
2022/09/15 01:00:56;;;;;;;3.50;2.90;;;17.60;70.90;;;;;;5094288;28;20489;-76
2022/09/15 01:03:24;;;;;;;3.83;3.10;;;17.60;70.90;;;;;;5094863;28;20024;-76
2022/09/15 01:06:27;;;;;;;3.70;2.83;;;17.60;70.90;;;;;;5094519;28;20150;-77
2022/09/15 01:09:01;;;;;;;3.50;2.95;;;17.60;71.00;;;;;;5089578;28;20036;-76
2022/09/15 01:11:28;;;;;;;3.65;3.20;;;17.60;70.90;;;;;;5094835;28;20032;-77
2022/09/15 01:13:53;;;;;;;4.22;3.05;;;17.60;70.90;;;;;;5094558;28;20023;-76
2022/09/15 01:16:22;;;;;;;3.33;2.83;;;17.50;70.80;;;;;;5094550;28;20369;-76
2022/09/15 01:18:56;;;;;;;4.57;3.28;;;17.60;70.90;;;;;;5094006;28;20118;-76
2022/09/15 01:21:31;;;;;;;4.03;3.28;;;17.50;71.00;;;;;;5094012;28;20063;-76
2022/09/15 01:24:23;;;;;;;3.97;3.10;;;17.50;70.90;;;;;;5096107;28;20036;-77
2022/09/15 01:27:02;;;;;;;3.17;2.88;;;17.50;71.00;;;;;;5094162;28;20545;-77
2022/09/15 01:29:37;;;;;;;3.65;3.13;;;17.50;70.90;;;;;;5094404;28;20651;-76
2022/09/15 01:35:26;;;;;;;4.47;3.30;;;17.50;71.10;;;;;;5094386;28;20055;-75
2022/09/15 01:38:10;;;;;;;4.53;3.40;;;17.50;71.00;;;;;;5094270;28;20024;-77
2022/09/15 01:41:00;;;;;;;4.10;3.17;;;17.50;71.00;;;;;;5076301;28;20488;-75
2022/09/15 01:43:28;;;;;;;3.97;3.17;;;17.50;71.00;;;;;;5094193;28;20078;-77
2022/09/15 01:45:54;;;;;;;4.20;3.25;;;17.50;71.00;;;;;;5093805;28;20111;-77
2022/09/15 01:48:24;;;;;;;5.35;3.78;;;17.40;71.00;;;;;;5076129;28;20063;-76
2022/09/15 01:50:54;;;;;;;4.32;3.40;;;17.50;71.10;;;;;;5094305;28;20039;-77
2022/09/15 01:53:21;;;;;;;3.88;3.28;;;17.50;71.70;;;;;;5094530;28;20024;-76
2022/09/15 01:56:06;;;;;;;4.45;3.40;;;17.50;71.20;;;;;;5075762;28;20111;-77
2022/09/15 01:58:33;;;;;;;;;;;17.40;71.20;;;;;;5094624;28;20051;-77
2022/09/15 02:01:06;;;;;;;4.63;3.00;;;17.40;71.40;;;;;;5093953;28;19911;-77
2022/09/15 02:03:47;;;;;;;3.72;3.03;;;17.40;71.00;;;;;;5093763;28;20030;-77
2022/09/15 02:06:35;;;;;;;5.72;3.70;;;17.40;71.10;;;;;;5076006;28;20519;-77
2022/09/15 02:09:13;;;;;;;4.10;3.40;;;17.40;71.40;;;;;;5094075;28;20035;-76
2022/09/15 02:12:06;;;;;;;3.88;3.25;;;17.40;71.10;;;;;;5094292;28;20381;-80
2022/09/15 02:14:59;;;;;;;4.57;3.33;;;17.40;71.20;;;;;;5093937;28;20416;-77
2022/09/15 02:17:28;;;;;;;3.83;3.13;;;17.40;71.20;;;;;;5093662;28;20170;-76
2022/09/15 02:20:01;;;;;;;4.15;3.15;;;17.40;71.10;;;;;;5093725;28;20031;-77
2022/09/15 02:22:31;;;;;;;5.15;3.40;;;17.40;71.10;;;;;;5075523;28;20024;-77
2022/09/15 02:25:15;;;;;;;4.03;3.30;;;17.40;71.50;;;;;;5075840;28;20396;-76
2022/09/15 02:27:45;;;;;;;3.40;3.10;;;17.40;71.20;;;;;;5075202;28;20035;-76
2022/09/15 02:30:13;;;;;;;4.93;3.22;;;17.40;71.20;;;;;;5093695;28;20462;-77
2022/09/15 02:32:46;;;;;;;4.53;3.28;;;17.30;71.10;;;;;;5095340;28;20028;-77
2022/09/15 02:35:14;;;;;;;3.67;3.10;;;17.40;71.20;;;;;;5097515;28;20032;-76
2022/09/15 02:37:40;;;;;;;5.07;3.53;;;17.30;71.10;;;;;;5097500;28;20074;-76
2022/09/15 02:40:07;;;;;;;3.67;3.15;;;17.30;71.10;;;;;;5097455;28;20038;-76
2022/09/15 02:42:33;;;;;;;3.97;3.20;;;17.30;71.20;;;;;;5097950;28;20393;-75
2022/09/15 02:45:00;;;;;;;4.20;3.20;;;17.30;71.20;;;;;;5097672;28;20028;-75
2022/09/15 02:47:27;;;;;;;3.65;3.05;;;17.30;71.20;;;;;;5097179;28;20459;-76
2022/09/15 02:49:53;;;;;;;4.03;3.35;;;17.30;71.20;;;;;;5097268;28;20041;-77
2022/09/15 02:52:19;;;;;;;4.60;3.00;;;17.30;71.20;;;;;;5097296;28;20024;-75
2022/09/15 02:54:45;;;;;;;3.25;2.92;;;17.30;71.20;;;;;;5096943;28;20035;-76
2022/09/15 02:57:12;;;;;;;3.75;2.88;;;17.30;71.30;;;;;;5097223;28;20028;-76
2022/09/15 03:02:24;;;;;;;4.82;3.22;;;17.30;71.20;;;;;;5097367;28;20518;-76
2022/09/15 03:04:50;;;;;;;4.38;2.97;;;17.30;71.30;;;;;;5097019;28;20028;-77
2022/09/15 03:07:17;;;;;;;3.35;3.05;;;17.30;71.20;;;;;;5097164;28;20031;-76
2022/09/15 03:09:43;;;;;;;3.92;3.10;;;17.30;71.20;;;;;;5096889;28;20055;-76
2022/09/15 03:12:09;;;;;;;3.30;2.88;;;17.30;71.20;;;;;;5096947;28;20024;-81
2022/09/15 03:14:35;;;;;;;2.88;2.60;;;17.20;71.20;;;;;;5096878;28;20111;-75
2022/09/15 03:17:02;;;;;;;3.28;2.95;;;17.30;71.20;;;;;;5097541;28;20024;-76
2022/09/15 03:19:27;;;;;;;3.28;2.75;;;17.30;71.20;;;;;;5079510;28;20032;-76
2022/09/15 03:21:53;;;;;;;3.40;2.80;;;17.30;71.20;;;;;;5096803;28;20024;-76
2022/09/15 03:24:19;;;;;;;3.47;3.00;;;17.30;71.20;;;;;;5078537;28;20032;-76
2022/09/15 03:26:46;;;;;;;3.92;2.90;;;17.20;71.20;;;;;;5096643;28;20059;-77
2022/09/15 03:29:11;;;;;;;2.95;2.58;;;17.30;71.20;;;;;;5096307;28;20035;-76
2022/09/15 03:31:37;;;;;;;3.10;2.80;;;17.30;71.20;;;;;;5078485;28;20035;-76
2022/09/15 03:34:03;;;;;;;3.13;2.78;;;17.30;71.10;;;;;;5078603;28;20036;-79
2022/09/15 03:36:29;;;;;;;3.95;3.17;;;17.30;71.10;;;;;;5078228;28;20053;-76
2022/09/15 03:38:58;;;;;;;4.57;3.58;;;17.30;71.10;;;;;;5096246;28;20024;-77
2022/09/15 03:41:25;;;;;;;6.75;4.85;;;17.30;71.20;;;;;;5096120;28;20076;-77
2022/09/15 03:43:51;;;;;;;5.95;4.85;;;17.30;71.10;;;;;;5095451;28;20481;-76
2022/09/15 03:46:17;;;;;;;7.10;5.57;;;17.30;71.20;;;;;;5096246;28;20021;-76
2022/09/15 03:48:43;;;;;;;8.27;5.55;;;17.30;71.20;;;;;;5095982;28;20373;-77
2022/09/15 03:51:09;;;;;;;6.50;5.30;;;17.30;71.20;;;;;;5095367;28;20032;-76
2022/09/15 03:53:38;;;;;;;8.63;6.57;;;17.30;71.20;;;;;;5095519;28;20070;-75
2022/09/15 03:56:25;;;;;;;7.55;6.25;;;17.30;71.20;;;;;;5077575;28;20024;-76
2022/09/15 03:58:51;;;;;;;8.45;6.50;;;17.30;71.30;;;;;;5077956;28;20028;-76
2022/09/15 04:01:18;;;;;;;7.93;5.93;;;17.30;71.20;;;;;;5077205;28;20070;-77
2022/09/15 04:03:45;;;;;;;7.32;5.88;;;17.30;71.20;;;;;;5095826;28;20051;-75
2022/09/15 04:06:11;;;;;;;6.85;5.45;;;17.30;71.20;;;;;;5078333;28;20024;-77
2022/09/15 04:08:37;;;;;;;6.93;5.28;;;17.30;71.10;;;;;;5077567;28;20105;-77
2022/09/15 04:11:07;;;;;;;6.78;5.13;;;17.30;71.10;;;;;;5077547;28;20070;-77
2022/09/15 04:13:34;;;;;;;6.78;4.88;;;17.30;71.10;;;;;;5096250;28;20031;-77
2022/09/15 04:16:03;;;;;;;5.32;4.50;;;17.30;71.10;;;;;;5095346;28;20103;-77
2022/09/15 04:18:29;;;;;;;5.95;4.35;;;17.40;71.20;;;;;;5077381;28;20035;-78
2022/09/15 04:21:04;;;;;;;6.15;4.43;;;17.40;71.10;;;;;;5095542;28;20032;-77
2022/09/15 04:23:30;;;;;;;5.55;4.35;;;17.40;71.10;;;;;;5095586;28;20031;-77
2022/09/15 04:25:58;;;;;;;5.57;4.25;;;17.40;71.10;;;;;;5077175;28;20024;-76
2022/09/15 04:28:24;;;;;;;5.20;4.07;;;17.40;71.10;;;;;;5095283;28;20093;-77
2022/09/15 04:30:51;;;;;;;5.70;3.92;;;17.50;71.10;;;;;;5095440;28;20035;-78
2022/09/15 04:33:17;;;;;;;5.07;4.03;;;17.40;71.10;;;;;;5077342;28;20028;-78
2022/09/15 04:35:42;;;;;;;5.55;4.47;;;17.50;71.10;;;;;;5077066;28;20031;-76
2022/09/15 04:38:09;;;;;;;5.95;4.60;;;17.50;71.10;;;;;;5095016;28;20058;-76
2022/09/15 04:40:35;;;;;;;6.40;4.97;;;17.50;71.00;;;;;;5076762;28;20115;-76
2022/09/15 04:43:01;;;;;;;6.82;4.90;;;17.50;71.00;;;;;;5095202;28;20032;-78
2022/09/15 04:45:26;;;;;;;6.13;4.82;;;17.60;71.00;;;;;;5095337;28;20431;-77
2022/09/15 04:47:52;;;;;;;6.43;4.82;;;17.60;71.00;;;;;;5095222;28;20063;-76
2022/09/15 04:50:18;;;;;;;5.82;4.43;;;17.50;70.90;;;;;;5095093;28;20066;-76
2022/09/15 04:52:44;;;;;;;5.93;4.25;;;17.60;70.90;;;;;;5094700;28;20020;-77
2022/09/15 04:55:09;;;;;;;5.85;5.03;;;17.60;70.80;;;;;;5095051;28;20020;-76
2022/09/15 04:57:35;;;;;;;5.63;4.40;;;17.60;70.90;;;;;;5094546;28;20374;-77
2022/09/15 05:00:04;;;;;;;5.75;4.57;;;17.60;70.80;;;;;;5094576;28;20535;-77
2022/09/15 05:02:30;;;;;;;5.95;4.60;;;17.60;70.70;;;;;;5094736;28;20474;-76
2022/09/15 05:04:56;;;;;;;7.03;4.93;;;17.70;70.80;;;;;;5076790;28;20032;-77
2022/09/15 05:07:21;;;;;;;6.47;5.00;;;17.70;70.70;;;;;;5094589;28;20476;-75
2022/09/15 05:09:47;;;;;;;6.50;4.97;;;17.70;70.70;;;;;;5094723;28;20462;-77
2022/09/15 05:12:13;;;;;;;6.53;5.10;;;17.70;70.60;;;;;;5077032;28;20024;-76
2022/09/15 05:14:38;;;;;;;6.28;5.20;;;17.70;70.60;;;;;;5094788;28;20024;-76
2022/09/15 05:17:04;;;;;;;7.03;5.05;;;17.80;70.60;;;;;;5076675;28;20113;-76
2022/09/15 05:19:29;;;;;;;5.95;4.60;;;17.80;70.50;;;;;;5094813;28;20075;-77
2022/09/15 05:21:55;;;;;;;6.30;4.60;;;17.80;70.50;;;;;;5076694;28;20024;-77
2022/09/15 05:24:21;;;;;;;6.22;4.55;;;17.80;70.40;;;;;;5094478;28;20036;-77
2022/09/15 05:26:46;;;;;;;5.90;4.40;;;17.80;70.40;;;;;;5094007;28;20032;-77
2022/09/15 05:29:13;;;;;;;5.20;4.28;;;17.80;70.40;;;;;;5094315;28;20032;-76
2022/09/15 05:31:38;;;;;;;6.50;4.53;;;17.80;70.40;;;;;;5094245;28;20411;-76
2022/09/15 05:34:04;;;;;;;7.30;4.43;;;17.90;70.40;;;;;;5094387;28;20024;-77
2022/09/15 05:36:30;;;;;;;6.07;4.40;;;17.90;70.40;;;;;;5076257;28;20031;-77
2022/09/15 05:38:57;;;;;;;5.30;4.05;;;17.90;70.30;;;;;;5075906;28;20046;-77
2022/09/15 05:41:24;;;;;;;6.45;4.10;;;18.00;70.30;;;;;;5081167;28;20048;-77
2022/09/15 05:43:53;;;;;;;6.05;4.18;;;18.00;70.20;;;;;;5092820;28;20455;-79
2022/09/15 05:46:19;;;;;;;5.88;4.10;;;18.00;70.20;;;;;;5092498;28;20024;-78
2022/09/15 05:48:45;;;;;;;6.85;5.00;;;18.10;70.30;;;;;;5093526;28;20454;-78
2022/09/15 05:51:11;;;;;;;4.78;4.03;;;18.10;70.00;;;;;;5093822;28;20028;-78
2022/09/15 05:53:37;;;;;;;5.65;4.50;;;18.10;69.90;;;;;;5094114;28;20028;-76
2022/09/15 05:56:06;;;;;;;5.45;4.32;;;18.10;69.90;;;;;;5092205;28;20095;-77
2022/09/15 05:58:32;;;;;;;4.70;3.92;;;18.10;69.90;;;;;;5091271;28;20024;-79
2022/09/15 06:01:04;;;;;;;5.28;3.88;;;18.20;69.90;;;;;;5091107;28;20044;-74
2022/09/15 06:03:30;;;;;;;4.10;3.50;;;18.20;69.80;;;;;;5090138;28;20107;-77
2022/09/15 06:06:00;;;;;;;4.50;3.78;;;18.20;69.80;;;;;;5091356;28;20135;-74
2022/09/15 06:08:30;;;;;;;4.65;3.70;;;18.20;69.80;;;;;;5094065;28;20039;-78
2022/09/15 06:11:02;;;;;;;4.78;3.67;;;18.10;69.80;;;;;;5096849;28;20028;-77
2022/09/15 06:13:28;;;;;;;4.13;3.40;;;18.20;69.80;;;;;;5093926;28;20473;-76
2022/09/15 06:15:59;;;;;;;3.50;3.20;;;18.20;69.80;;;;;;5095255;28;20024;-77
2022/09/15 06:18:25;;;;;;;3.92;2.92;;;18.20;69.80;;;;;;5078905;28;20040;-78
2022/09/15 06:20:51;;;;;;;4.13;3.30;;;18.20;69.80;;;;;;5094818;28;20401;-78
2022/09/15 06:23:16;;;;;;;4.53;3.20;;;18.20;69.80;;;;;;5096243;28;20036;-76
2022/09/15 06:25:42;;;;;;;3.55;3.10;;;18.20;69.80;;;;;;5078017;28;20474;-76
2022/09/15 06:28:08;;;;;;;3.50;2.95;;;18.20;69.80;;;;;;5094105;28;20044;-70
2022/09/15 06:30:33;;;;;;;3.47;3.15;;;18.20;69.80;;;;;;5096445;28;20465;-69
2022/09/15 06:32:59;;;;;;;4.18;3.55;;;18.20;69.80;;;;;;5096035;28;20028;-76
2022/09/15 06:35:25;;;;;;;3.00;2.70;;;18.20;69.80;;;;;;5095377;28;20124;-70
2022/09/15 06:37:50;;;;;;;3.80;2.95;;;18.20;69.80;;;;;;5096892;28;20114;-74
2022/09/15 06:40:16;;;;;;;3.00;2.70;;;18.30;69.90;;;;;;5096997;28;20081;-78
2022/09/15 06:42:42;;;;;;;3.08;2.78;;;18.30;69.90;;;;;;5095320;28;20093;-79
2022/09/15 06:45:08;;;;;;;4.90;3.10;;;18.30;69.90;;;;;;5095918;28;20032;-76
2022/09/15 06:47:34;;;;;;;3.20;2.90;;;18.40;69.90;;;;;;5095712;28;20028;-77
2022/09/15 06:50:00;;;;;;;4.20;3.30;;;18.30;69.80;;;;;;5095194;28;20028;-77
2022/09/15 06:52:26;;;;;;;3.20;2.88;;;18.40;69.80;;;;;;5094342;28;20028;-75
2022/09/15 06:54:51;;;;;;;3.97;3.38;;;18.40;69.80;;;;;;5094177;28;20550;-76
2022/09/15 06:57:17;;;;;;;3.40;3.10;;;18.40;69.70;;;;;;5095362;28;20484;-75
2022/09/15 06:59:43;;;;;;;5.45;2.80;;;18.40;69.70;;;;;;5093771;28;20492;-75
2022/09/15 07:02:09;;;;;;;6.03;3.28;;;18.40;69.70;;;;;;5093932;28;20024;-74
2022/09/15 07:04:35;;;;;;;4.03;3.20;;;18.40;69.70;;;;;;5095091;28;20023;-74
2022/09/15 07:07:01;;;;;;;3.83;3.25;;;18.50;69.70;;;;;;5094380;28;20028;-72
2022/09/15 07:09:27;;;;;;;3.15;2.85;;;18.50;69.60;;;;;;5094333;28;20109;-74
2022/09/15 07:11:53;;;;;;;5.93;3.47;;;18.50;69.50;;;;;;5095529;28;20028;-78
2022/09/15 07:14:18;;;;;;;3.92;3.35;;;18.60;70.10;;;;;;5094368;28;20415;-71
2022/09/15 07:16:44;;;;;;;3.70;3.15;;;18.60;69.50;;;;;;5093795;28;20020;-73
2022/09/15 07:19:10;;;;;;;3.50;3.05;;;18.60;69.40;;;;;;5095574;28;20105;-73
2022/09/15 07:21:36;;;;;;;4.20;3.20;;;18.60;69.40;;;;;;5093955;28;20020;-76
2022/09/15 07:24:03;;;;;;;4.22;3.50;;;18.60;69.30;;;;;;5094801;28;20039;-75
2022/09/15 07:26:29;;;;;;;3.30;3.00;;;18.60;69.20;;;;;;5093569;28;20040;-75
2022/09/15 07:29:00;;;;;;;4.07;3.08;;;18.70;69.30;;;;;;5094662;28;20090;-76
2022/09/15 07:31:29;;;;;;;3.78;3.10;;;18.60;69.20;;;;;;5093818;28;20523;-74
2022/09/15 07:33:56;;;;;;;4.07;3.40;;;18.70;69.20;;;;;;5094484;28;20030;-76
2022/09/15 07:36:21;;;;;;;4.40;3.42;;;18.60;69.20;;;;;;5094573;28;20473;-74
2022/09/15 07:38:48;;;;;;;3.92;3.30;;;18.60;69.20;;;;;;5094865;28;20034;-75
2022/09/15 07:41:20;;;;;;;4.95;3.60;;;18.60;69.20;;;;;;5093839;28;20055;-75
2022/09/15 07:43:51;;;;;;;4.07;3.00;;;18.60;69.20;;;;;;5095515;28;20111;-77
2022/09/15 07:46:19;;;;;;;3.80;3.30;;;18.40;69.10;;;;;;5093007;28;20119;-77
2022/09/15 07:48:45;;;;;;;4.43;3.63;;;18.60;69.20;;;;;;5093839;28;20494;-77
2022/09/15 07:51:11;;;;;;;3.78;3.13;;;18.70;69.20;;;;;;5094359;28;20115;-77
2022/09/15 07:53:37;;;;;;;5.20;3.47;;;18.60;69.10;;;;;;5094662;28;20028;-77
2022/09/15 07:56:03;;;;;;;4.35;3.40;;;18.70;69.10;;;;;;5096013;28;20024;-76
2022/09/15 07:58:29;;;;;;;4.20;3.17;;;18.70;69.10;;;;;;5094724;28;20055;-76
2022/09/15 08:01:04;;;;;;;3.90;3.22;;;18.70;69.20;;;;;;5094379;28;20027;-77
2022/09/15 08:03:30;;;;;;;3.97;3.33;;;18.60;69.10;;;;;;5095070;28;20028;-76
2022/09/15 08:06:00;;;;;;;3.85;3.33;;;18.60;69.00;;;;;;5096389;28;20028;-76
2022/09/15 08:08:27;;;;;;;4.60;3.33;;;18.60;69.10;;;;;;5094880;28;20390;-77
2022/09/15 08:10:53;;;;;;;3.85;3.15;;;18.60;69.10;;;;;;5095824;28;20024;-75
2022/09/15 08:13:18;;;;;;;4.47;3.28;;;18.60;69.10;;;;;;5094356;28;20351;-77
2022/09/15 08:15:45;;;;;;;3.85;3.20;;;18.60;69.20;;;;;;5094562;28;20054;-77
2022/09/15 08:18:10;;;;;;;3.83;3.30;;;18.60;69.20;;;;;;5095926;28;20491;-77
2022/09/15 08:20:41;;;;;;;5.68;3.35;;;18.60;69.20;;;;;;5094671;28;20118;-77
2022/09/15 08:23:07;;;;;;;5.07;3.35;;;18.60;69.20;;;;;;5094138;28;20475;-77
2022/09/15 08:25:33;;;;;;;4.75;3.30;;;18.60;69.20;;;;;;5095489;28;20035;-77
2022/09/15 08:27:58;;;;;;;4.60;3.55;;;18.60;69.20;;;;;;5094080;28;20126;-76
2022/09/15 08:30:25;;;;;;;4.90;3.75;;;18.60;69.20;;;;;;5093906;28;20052;-77
2022/09/15 08:32:51;;;;;;;5.13;4.03;;;18.60;69.20;;;;;;5095906;28;20024;-75
2022/09/15 08:35:18;;;;;;;5.22;3.60;;;18.60;69.10;;;;;;5094151;28;20024;-77
2022/09/15 08:37:44;;;;;;;4.32;3.20;;;18.60;69.10;;;;;;5095238;28;20106;-77
2022/09/15 08:40:31;;;;;;;4.43;3.85;;;18.60;69.10;;;;;;5094032;28;20027;-77
2022/09/15 08:43:02;;;;;;;4.68;3.78;;;18.60;69.70;;;;;;5094989;28;20047;-77
2022/09/15 08:45:43;;;;;;;5.38;3.90;;;18.60;69.10;;;;;;5096298;28;20050;-77
2022/09/15 08:48:14;;;;;;;4.22;3.63;;;18.60;69.10;;;;;;5095852;28;20374;-76
2022/09/15 08:50:47;;;;;;;5.05;3.95;;;18.70;69.10;;;;;;5076814;28;20051;-77
2022/09/15 08:53:18;;;;;;;8.23;3.95;;;18.70;69.10;;;;;;5093837;28;20454;-77
2022/09/15 08:55:49;;;;;;;5.50;4.20;;;18.70;69.10;;;;;;5094092;28;20024;-77
2022/09/15 08:58:20;;;;;;;5.75;4.18;;;18.80;69.10;;;;;;5093993;28;20064;-77
2022/09/15 09:00:50;;;;;;;6.32;4.05;;;18.80;69.00;;;;;;5093638;28;20119;-77
2022/09/15 09:03:42;;;;;;;5.22;4.10;;;18.90;69.00;;;;;;5094878;28;20024;-76
2022/09/15 09:06:32;;;;;;;6.15;3.97;;;18.90;68.90;;;;;;5093814;28;20066;-76
2022/09/15 09:09:10;;;;;;;5.47;4.30;;;19.00;68.80;;;;;;5093446;28;20462;-77
2022/09/15 09:11:51;;;;;;;5.57;4.30;;;19.00;69.30;;;;;;5093597;28;20097;-76
2022/09/15 09:14:23;;;;;;;6.05;4.50;;;19.00;68.70;;;;;;5093666;28;20024;-77
2022/09/15 09:17:28;;;;;;;6.88;4.47;;;19.00;68.70;;;;;;5094561;28;20480;-76
2022/09/15 09:20:00;;;;;;;;;;;19.00;68.60;;;;;;5065225;28;20456;-76
2022/09/15 09:22:31;;;;;;;4.63;4.15;;;19.00;68.60;;;;;;5092942;28;19908;-74
2022/09/15 09:24:59;;;;;;;5.50;4.75;;;19.00;68.60;;;;;;5094191;28;20028;-77
2022/09/15 09:27:32;;;;;;;6.28;4.50;;;19.00;68.60;;;;;;5094335;28;20038;-74
2022/09/15 09:30:21;;;;;;;7.40;4.43;;;19.00;68.70;;;;;;5094644;28;20106;-76
2022/09/15 09:32:59;;;;;;;7.15;5.15;;;18.80;68.60;;;;;;5094892;28;20662;-77
2022/09/15 09:35:34;;;;;;;5.80;4.57;;;19.00;68.70;;;;;;5092984;28;20060;-77
2022/09/15 09:38:01;;;;;;;7.47;4.80;;;19.00;68.80;;;;;;5093266;28;20046;-75
2022/09/15 09:40:30;;;;;;;6.60;4.88;;;18.90;68.80;;;;;;5092658;28;20028;-78
2022/09/15 09:42:56;;;;;;;7.50;4.95;;;18.90;68.90;;;;;;5075320;28;20484;-75
2022/09/15 09:45:22;;;;;;;6.32;4.75;;;19.00;69.00;;;;;;5094106;28;20039;-76
2022/09/15 09:47:48;;;;;;;6.40;4.75;;;18.90;68.90;;;;;;5076065;28;20036;-75
2022/09/15 09:50:37;;;;;;;6.80;4.97;;;18.90;69.00;;;;;;5093900;28;20028;-76
2022/09/15 09:53:38;;;;;;;5.60;4.68;;;18.90;69.00;;;;;;5076219;28;20389;-76
2022/09/15 09:56:24;;;;;;;7.00;4.85;;;18.90;69.10;;;;;;4975887;28;20041;-79
2022/09/15 09:58:51;;;;;;;5.18;4.18;;;18.90;69.10;;;;;;5068593;28;20047;-77
2022/09/15 10:01:19;;;;;;;6.25;4.80;;;18.90;69.10;;;;;;5075916;28;20032;-77
2022/09/15 10:03:45;;;;;;;5.90;4.85;;;18.80;69.10;;;;;;5094179;28;20402;-75
2022/09/15 10:06:17;;;;;;;6.47;5.07;;;18.80;69.20;;;;;;5059085;28;20028;-77
2022/09/15 10:09:04;;;;;;;5.57;4.55;;;18.80;69.50;;;;;;5075821;28;20042;-77
2022/09/15 10:11:42;;;;;;;6.15;4.57;;;18.90;69.30;;;;;;5075820;28;20060;-76
2022/09/15 10:14:16;;;;;;;5.63;4.55;;;18.80;69.20;;;;;;5075762;28;20032;-78
2022/09/15 10:16:42;;;;;;;6.30;4.50;;;18.90;69.30;;;;;;5093626;28;20519;-76
2022/09/15 10:19:13;;;;;;;5.70;5.10;;;18.80;69.30;;;;;;5093635;28;20040;-77
2022/09/15 10:21:39;;;;;;;5.55;4.47;;;18.80;69.30;;;;;;5076143;28;20035;-77
2022/09/15 10:24:31;;;;;;;6.97;5.10;;;18.80;69.40;;;;;;5093618;28;20099;-77
2022/09/15 10:27:27;;;;;;;5.88;5.07;;;18.90;69.40;;;;;;5062273;28;20094;-76
2022/09/15 10:29:54;;;;;;;7.05;4.38;;;18.80;69.40;;;;;;5093610;28;20117;-76
2022/09/15 10:32:29;;;;;;;4.88;4.22;;;18.80;69.40;;;;;;5075656;28;20028;-76
2022/09/15 10:35:17;;;;;;;5.78;4.10;;;18.90;69.40;;;;;;5093493;28;20039;-75
2022/09/15 10:38:07;;;;;;;6.30;4.68;;;18.90;69.50;;;;;;5076063;28;20119;-76
2022/09/15 10:40:44;;;;;;;5.25;4.65;;;18.90;69.50;;;;;;5075212;28;20035;-77
2022/09/15 10:43:29;;;;;;;6.15;4.72;;;18.90;69.50;;;;;;5074418;28;20073;-78
2022/09/15 10:46:03;;;;;;;5.68;4.25;;;18.90;69.50;;;;;;5074670;28;20027;-76
2022/09/15 10:49:04;;;;;;;6.85;4.72;;;18.90;69.50;;;;;;5074954;28;20083;-76
2022/09/15 10:51:54;;;;;;;5.63;4.53;;;18.90;69.60;;;;;;5075456;28;20114;-77
2022/09/15 10:54:45;;;;;;;6.65;4.25;;;18.90;69.60;;;;;;5078608;28;20101;-76
2022/09/15 10:57:26;;;;;;;6.65;4.30;;;18.90;69.70;;;;;;5079466;28;20031;-77
2022/09/15 11:00:00;;;;;;;5.43;4.20;;;18.90;69.60;;;;;;5080098;28;20099;-78
2022/09/15 11:02:42;;;;;;;5.90;4.35;;;19.00;69.70;;;;;;5081500;28;20027;-77
2022/09/15 11:05:42;;;;;;;5.68;4.20;;;18.90;69.70;;;;;;5079578;28;20070;-77
2022/09/15 11:08:28;;;;;;;5.38;4.05;;;18.90;69.80;;;;;;5096992;28;20028;-78
2022/09/15 11:11:23;;;;;;;5.97;4.18;;;19.00;69.80;;;;;;5096857;28;20373;-78
2022/09/15 11:13:51;;;;;;;;;;;19.00;69.70;;;;;;5078182;28;20028;-78
2022/09/15 11:16:32;;;;;;;4.78;3.70;;;18.90;70.00;;;;;;5078781;28;19904;-76
2022/09/15 11:19:45;;;;;;;3.92;3.50;;;19.00;69.70;;;;;;5096613;28;20031;-77
2022/09/15 11:22:37;;;;;;;5.47;4.10;;;19.00;69.90;;;;;;5069382;28;20035;-76
2022/09/15 11:25:25;;;;;;;5.15;4.10;;;19.10;69.80;;;;;;5064177;28;20469;-77
2022/09/15 11:27:58;;;;;;;4.15;3.42;;;19.10;69.80;;;;;;5096825;28;20036;-77
2022/09/15 11:30:31;;;;;;;4.77;4.00;;;19.20;69.70;;;;;;5078842;28;20149;-77
2022/09/15 11:33:25;;;;;;;5.60;3.80;;;19.20;69.70;;;;;;5078448;28;20047;-76
2022/09/15 11:36:14;;;;;;;4.70;3.88;;;19.20;69.60;;;;;;5078283;28;20047;-77
2022/09/15 11:38:47;;;;;;;4.93;3.80;;;19.20;69.70;;;;;;5078828;28;20105;-77
2022/09/15 11:41:39;;;;;;;5.25;3.78;;;19.20;69.70;;;;;;5096438;28;20044;-77
2022/09/15 11:44:17;;;;;;;4.80;3.80;;;19.20;69.70;;;;;;5078594;28;20415;-77
2022/09/15 11:47:01;;;;;;;4.45;3.67;;;19.30;69.70;;;;;;5078317;28;20020;-77
2022/09/15 11:49:39;;;;;;;4.90;3.83;;;19.30;69.60;;;;;;5078177;28;20424;-76
2022/09/15 11:52:38;;;;;;;4.72;3.38;;;19.30;69.70;;;;;;5096252;28;20070;-76
2022/09/15 11:55:34;;;;;;;5.93;3.80;;;19.30;69.70;;;;;;5078285;28;20081;-79
2022/09/15 11:58:17;;;;;;;4.38;3.33;;;19.20;69.80;;;;;;5078065;28;20061;-78
2022/09/15 12:01:01;;;;;;;4.05;3.53;;;19.30;69.80;;;;;;5077993;28;20474;-78
2022/09/15 12:03:42;;;;;;;3.83;3.43;;;19.30;69.80;;;;;;5077893;28;20036;-75
2022/09/15 12:06:29;;;;;;;6.57;3.65;;;19.30;69.80;;;;;;5077108;28;20027;-77
2022/09/15 12:08:59;;;;;;;5.47;3.67;;;19.30;69.80;;;;;;5077765;28;20397;-77
2022/09/15 12:11:29;;;;;;;4.53;3.85;;;19.20;69.80;;;;;;5061522;28;20062;-77
2022/09/15 12:13:55;;;;;;;3.70;3.30;;;19.20;69.90;;;;;;5096193;28;20024;-77
2022/09/15 12:16:23;;;;;;;4.13;3.70;;;19.20;70.00;;;;;;5095619;28;20382;-77
2022/09/15 12:19:03;;;;;;;5.75;4.03;;;19.20;70.00;;;;;;5095368;28;20398;-76
2022/09/15 12:21:47;;;;;;;4.78;3.97;;;19.10;70.10;;;;;;5095403;28;20024;-77
2022/09/15 12:24:25;;;;;;;4.87;3.90;;;19.10;70.20;;;;;;5077334;28;20131;-76
2022/09/15 12:26:51;;;;;;;6.47;4.00;;;19.10;70.20;;;;;;5077287;28;20028;-78
2022/09/15 12:29:25;;;;;;;3.90;3.40;;;19.10;70.30;;;;;;5077023;28;20032;-76
2022/09/15 12:32:23;;;;;;;4.15;3.55;;;19.10;70.30;;;;;;5095199;28;20031;-75
2022/09/15 12:35:14;;;;;;;4.70;3.53;;;19.10;70.40;;;;;;5077134;28;20027;-76
2022/09/15 12:37:51;;;;;;;4.03;3.45;;;19.00;70.40;;;;;;5077161;28;20024;-75
2022/09/15 12:40:38;;;;;;;4.28;3.38;;;19.10;70.40;;;;;;5077154;28;20062;-77
2022/09/15 12:43:10;;;;;;;3.55;3.25;;;19.20;70.50;;;;;;5077398;28;20040;-80
2022/09/15 12:45:37;;;;;;;3.95;3.45;;;19.20;70.40;;;;;;5095169;28;20103;-77
2022/09/15 12:48:10;;;;;;;4.20;3.60;;;19.20;70.30;;;;;;5077777;28;20058;-76
2022/09/15 12:50:42;;;;;;;3.88;3.50;;;19.30;70.90;;;;;;5095475;28;20028;-79
2022/09/15 12:53:22;;;;;;;4.45;3.65;;;19.30;70.20;;;;;;5077403;28;20028;-77
2022/09/15 12:56:06;;;;;;;3.95;3.40;;;19.40;70.20;;;;;;5076760;28;20081;-77
2022/09/15 12:58:46;;;;;;;3.42;3.10;;;19.50;70.20;;;;;;5094732;28;20069;-76
2022/09/15 13:01:21;;;;;;;4.40;3.30;;;19.50;70.70;;;;;;5077646;28;20048;-76
2022/09/15 13:03:49;;;;;;;3.78;3.10;;;19.50;70.00;;;;;;5076584;28;20035;-76
2022/09/15 13:06:18;;;;;;;3.95;3.40;;;19.50;70.00;;;;;;5076529;28;20492;-76
2022/09/15 13:08:53;;;;;;;3.58;3.22;;;19.60;70.00;;;;;;5094530;28;20054;-77
2022/09/15 13:11:33;;;;;;;4.47;3.67;;;19.60;70.00;;;;;;5094699;28;20086;-77
2022/09/15 13:14:07;;;;;;;4.00;3.20;;;19.60;70.00;;;;;;5076883;28;20428;-76
2022/09/15 13:16:39;;;;;;;3.58;3.15;;;19.60;70.00;;;;;;5094850;28;20122;-77
2022/09/15 13:19:25;;;;;;;3.33;2.97;;;19.70;70.10;;;;;;5097646;28;20028;-75